Time;durP1;ratioP1;P1;durP2;ratioP2;P2;SDS_P1;SDS_P2;PMS_P1;PMS_P2;Temp;Humidity;BMP_temperature;BMP_pressure;BME280_temperature;BME280_humidity;BME280_pressure;Samples;Min_cycle;Max_cycle;Signal;HPM_P1;HPM_P2
2022/07/16 00:02:51;;;;;;;5.93;1.75;;;15.80;99.90;;;;;;5119344;27;20390;-83
2022/07/16 00:05:17;;;;;;;4.20;1.67;;;15.80;99.90;;;;;;5137001;27;20047;-83
2022/07/16 00:07:42;;;;;;;4.38;2.00;;;15.80;99.90;;;;;;5119150;27;20570;-83
2022/07/16 00:10:08;;;;;;;5.03;1.70;;;15.80;99.90;;;;;;5119203;27;20406;-83
2022/07/16 00:12:34;;;;;;;5.05;2.25;;;15.80;99.90;;;;;;5155045;27;20405;-83
2022/07/16 00:15:02;;;;;;;3.95;1.75;;;15.80;99.90;;;;;;5156919;27;20192;-83
2022/07/16 00:17:27;;;;;;;5.15;1.98;;;15.80;99.90;;;;;;5139185;27;20486;-83
2022/07/16 00:19:53;;;;;;;4.20;1.80;;;15.80;99.90;;;;;;5158585;27;20054;-83
2022/07/16 00:22:19;;;;;;;4.65;2.33;;;15.80;99.90;;;;;;5124535;27;20047;-83
2022/07/16 00:24:44;;;;;;;3.08;1.70;;;15.80;99.90;;;;;;5135887;27;20057;-83
2022/07/16 00:27:10;;;;;;;3.13;1.75;;;15.80;99.90;;;;;;5134106;27;20043;-84
2022/07/16 00:29:36;;;;;;;3.72;1.90;;;15.80;99.90;;;;;;5158496;27;20082;-83
2022/07/16 00:32:02;;;;;;;4.28;1.80;;;15.80;99.90;;;;;;5142415;27;20039;-83
2022/07/16 00:34:28;;;;;;;2.85;1.60;;;15.80;99.90;;;;;;5138580;27;20681;-84
2022/07/16 00:36:53;;;;;;;5.47;2.20;;;15.80;99.90;;;;;;5150699;27;20043;-84
2022/07/16 00:39:19;;;;;;;2.47;1.45;;;15.80;99.90;;;;;;5131077;27;20428;-84
2022/07/16 00:41:47;;;;;;;6.57;2.03;;;15.90;99.90;;;;;;5139621;27;20031;-83
2022/07/16 00:44:16;;;;;;;4.28;1.75;;;15.90;99.90;;;;;;5138313;27;20043;-83
2022/07/16 00:46:44;;;;;;;6.22;1.98;;;15.90;99.90;;;;;;5138135;27;20070;-84
2022/07/16 00:49:11;;;;;;;2.42;1.35;;;15.90;99.90;;;;;;5124923;27;20107;-84
2022/07/16 00:51:45;;;;;;;6.03;2.05;;;15.90;99.90;;;;;;5156017;27;20413;-81
2022/07/16 00:54:12;;;;;;;3.83;2.00;;;16.00;99.90;;;;;;5137269;27;20072;-83
2022/07/16 00:56:38;;;;;;;6.57;2.67;;;15.90;99.90;;;;;;5155697;27;20485;-83
2022/07/16 00:59:04;;;;;;;6.88;2.92;;;15.80;99.90;;;;;;5155425;27;20520;-83
2022/07/16 01:01:30;;;;;;;4.63;2.70;;;15.80;99.90;;;;;;5156457;27;20043;-83
2022/07/16 01:03:56;;;;;;;6.63;3.42;;;15.80;99.90;;;;;;5136162;27;20139;-83
2022/07/16 01:06:22;;;;;;;7.15;3.05;;;15.70;99.90;;;;;;5137826;27;20074;-83
2022/07/16 01:08:49;;;;;;;4.05;2.35;;;15.70;99.90;;;;;;5155389;27;20046;-83
2022/07/16 01:11:17;;;;;;;11.20;2.75;;;15.60;99.90;;;;;;5152681;27;20123;-83
2022/07/16 01:13:45;;;;;;;5.90;2.80;;;15.60;99.90;;;;;;5135328;27;20065;-83
2022/07/16 01:16:12;;;;;;;9.00;2.70;;;15.60;99.90;;;;;;5155966;27;20452;-83
2022/07/16 01:18:40;;;;;;;10.50;2.92;;;15.60;99.90;;;;;;5155245;27;20091;-83
2022/07/16 01:21:06;;;;;;;9.27;3.17;;;15.60;99.90;;;;;;5135939;27;20058;-82
2022/07/16 01:23:33;;;;;;;5.63;3.10;;;15.60;99.90;;;;;;5155951;27;20491;-83
2022/07/16 01:25:59;;;;;;;8.25;2.80;;;15.50;99.90;;;;;;5154188;27;20053;-83
2022/07/16 01:28:25;;;;;;;9.48;3.45;;;15.50;99.90;;;;;;5137426;27;20050;-82
2022/07/16 01:30:51;;;;;;;8.70;2.42;;;15.50;99.90;;;;;;5136258;27;20077;-83
2022/07/16 01:33:27;;;;;;;6.10;1.90;;;15.50;99.90;;;;;;5136307;27;20043;-83
2022/07/16 01:35:56;;;;;;;5.28;1.98;;;15.50;99.90;;;;;;5154850;27;20053;-83
2022/07/16 01:38:23;;;;;;;4.40;1.55;;;15.40;99.90;;;;;;5155776;27;20043;-83
2022/07/16 01:40:48;;;;;;;3.85;2.67;;;15.40;99.90;;;;;;5153734;27;20396;-83
2022/07/16 01:43:26;;;;;;;7.80;1.95;;;15.40;99.90;;;;;;5155770;27;20038;-83
2022/07/16 01:45:52;;;;;;;8.18;2.90;;;15.40;99.90;;;;;;5153742;27;20099;-83
2022/07/16 01:48:19;;;;;;;10.15;2.03;;;15.40;99.90;;;;;;5135512;27;20069;-83
2022/07/16 01:50:45;;;;;;;4.65;1.75;;;15.40;99.90;;;;;;5154582;27;20554;-83
2022/07/16 01:53:11;;;;;;;8.05;2.25;;;15.40;99.90;;;;;;5153766;27;20042;-83
2022/07/16 01:55:38;;;;;;;8.10;1.73;;;15.40;99.90;;;;;;5155392;27;20129;-83
2022/07/16 01:58:05;;;;;;;6.47;2.33;;;15.40;99.90;;;;;;5154760;27;20035;-82
2022/07/16 02:00:34;;;;;;;5.88;1.58;;;15.30;99.90;;;;;;5153548;27;20508;-82
2022/07/16 02:03:00;;;;;;;7.40;1.40;;;15.30;99.90;;;;;;5155439;27;20042;-84
2022/07/16 02:05:26;;;;;;;5.22;1.88;;;15.30;99.90;;;;;;5137086;27;20377;-83
2022/07/16 02:07:52;;;;;;;3.75;1.55;;;15.30;99.90;;;;;;5135039;27;20494;-83
2022/07/16 02:10:18;;;;;;;5.35;1.52;;;15.30;99.90;;;;;;5155039;27;20054;-83
2022/07/16 02:12:45;;;;;;;8.27;1.95;;;15.30;99.90;;;;;;5153410;27;20058;-83
2022/07/16 02:15:11;;;;;;;7.57;1.45;;;15.30;99.90;;;;;;5154419;27;20553;-83
2022/07/16 02:17:38;;;;;;;4.38;1.33;;;15.30;99.90;;;;;;5135935;27;20050;-83
2022/07/16 02:20:05;;;;;;;5.90;1.67;;;15.30;99.90;;;;;;5137046;27;20051;-83
2022/07/16 02:22:31;;;;;;;6.47;1.50;;;15.30;99.90;;;;;;5152883;27;20499;-82
2022/07/16 02:24:57;;;;;;;5.18;1.35;;;15.30;99.90;;;;;;5155109;27;20079;-82
2022/07/16 02:27:22;;;;;;;4.03;1.65;;;15.30;99.90;;;;;;5135789;27;20047;-82
2022/07/16 02:29:48;;;;;;;4.47;1.05;;;15.20;99.90;;;;;;5136028;27;20164;-82
2022/07/16 02:32:14;;;;;;;5.10;1.88;;;15.20;99.90;;;;;;5154149;27;20109;-83
2022/07/16 02:34:40;;;;;;;4.30;1.40;;;15.20;99.90;;;;;;5155208;27;20378;-83
2022/07/16 02:37:05;;;;;;;6.80;1.25;;;15.20;99.90;;;;;;5152871;27;20408;-83
2022/07/16 02:39:32;;;;;;;6.57;1.75;;;15.20;99.90;;;;;;5155046;27;20046;-82
2022/07/16 02:41:58;;;;;;;4.43;1.67;;;15.10;99.90;;;;;;5133784;27;20047;-83
2022/07/16 02:44:24;;;;;;;7.13;2.13;;;15.10;99.90;;;;;;5135888;27;20538;-83
2022/07/16 02:46:50;;;;;;;5.50;1.33;;;15.10;99.90;;;;;;5138213;27;20051;-82
2022/07/16 02:49:15;;;;;;;6.32;1.48;;;15.10;99.90;;;;;;5158272;27;20047;-82
2022/07/16 02:51:41;;;;;;;8.52;1.48;;;15.10;99.90;;;;;;5158058;27;20066;-82
2022/07/16 02:54:07;;;;;;;6.82;1.30;;;15.00;99.90;;;;;;5159195;27;20489;-83
2022/07/16 02:56:33;;;;;;;3.30;1.30;;;15.00;99.90;;;;;;5138056;27;20054;-82
2022/07/16 02:58:58;;;;;;;6.03;1.52;;;14.90;99.90;;;;;;5158851;27;20047;-82
2022/07/16 03:01:24;;;;;;;4.30;1.67;;;14.90;99.90;;;;;;5139254;27;20046;-82
2022/07/16 03:03:51;;;;;;;5.85;1.23;;;14.80;99.90;;;;;;5157934;27;20039;-82
2022/07/16 03:06:17;;;;;;;4.85;1.55;;;14.80;99.90;;;;;;5138207;27;20042;-82
2022/07/16 03:08:43;;;;;;;7.85;1.60;;;14.80;99.90;;;;;;5159047;27;20125;-82
2022/07/16 03:11:09;;;;;;;3.67;1.20;;;14.70;99.90;;;;;;5156969;27;20117;-82
2022/07/16 03:13:35;;;;;;;4.68;1.42;;;14.70;99.90;;;;;;5158582;27;20392;-83
2022/07/16 03:16:01;;;;;;;8.15;2.65;;;14.70;99.90;;;;;;5157228;27;20160;-82
2022/07/16 03:18:27;;;;;;;9.05;1.58;;;14.60;99.90;;;;;;5138941;27;20126;-82
2022/07/16 03:20:53;;;;;;;6.53;1.65;;;14.60;99.90;;;;;;5157230;27;20101;-83
2022/07/16 03:23:18;;;;;;;5.05;1.90;;;14.50;99.90;;;;;;5140081;27;20048;-82
2022/07/16 03:25:44;;;;;;;2.60;1.65;;;14.40;99.90;;;;;;5156651;27;20470;-82
2022/07/16 03:28:10;;;;;;;5.13;1.50;;;14.40;99.90;;;;;;5158450;27;20474;-83
2022/07/16 03:30:36;;;;;;;8.88;2.08;;;14.30;99.90;;;;;;5138643;27;20039;-83
2022/07/16 03:33:02;;;;;;;9.95;2.00;;;14.30;99.90;;;;;;5147175;27;20043;-82
2022/07/16 03:35:29;;;;;;;8.57;1.67;;;14.20;99.90;;;;;;5119321;27;20478;-83
2022/07/16 03:40:39;;;;;;;8.60;1.90;;;14.10;99.90;;;;;;5118934;27;20054;-82
2022/07/16 03:43:05;;;;;;;6.38;1.92;;;14.00;99.90;;;;;;5137261;27;20051;-83
2022/07/16 03:45:31;;;;;;;5.82;1.70;;;14.10;99.90;;;;;;5156084;27;20054;-83
2022/07/16 03:47:57;;;;;;;15.13;2.22;;;14.00;99.90;;;;;;5139241;27;20481;-83
2022/07/16 03:50:23;;;;;;;7.90;1.92;;;14.00;99.90;;;;;;5157204;27;20043;-84
2022/07/16 03:52:49;;;;;;;4.65;1.80;;;14.00;99.90;;;;;;5157254;27;20035;-83
2022/07/16 03:55:15;;;;;;;12.88;2.15;;;14.00;99.90;;;;;;5156829;27;20041;-83
2022/07/16 03:57:41;;;;;;;5.55;1.92;;;13.90;99.90;;;;;;5139356;27;20099;-84
2022/07/16 04:00:09;;;;;;;6.70;1.58;;;13.90;99.90;;;;;;5156380;27;20080;-83
2022/07/16 04:02:35;;;;;;;7.68;1.73;;;13.90;99.90;;;;;;5158151;27;20042;-83
2022/07/16 04:05:00;;;;;;;9.07;2.28;;;13.90;99.90;;;;;;5111500;27;20126;-83
2022/07/16 04:07:26;;;;;;;4.93;1.73;;;13.90;99.90;;;;;;5136249;27;20042;-83
2022/07/16 04:09:52;;;;;;;5.25;1.75;;;14.00;99.90;;;;;;5129791;27;20046;-84
2022/07/16 04:12:21;;;;;;;7.68;1.85;;;14.00;99.90;;;;;;5139150;27;20078;-84
2022/07/16 04:14:47;;;;;;;9.10;1.92;;;13.90;99.90;;;;;;5156847;27;20058;-84
2022/07/16 04:17:12;;;;;;;7.05;1.90;;;13.90;99.90;;;;;;5137854;27;20042;-84
2022/07/16 04:19:38;;;;;;;6.43;2.08;;;13.90;99.90;;;;;;5157809;27;20503;-84
2022/07/16 04:22:04;;;;;;;6.90;1.70;;;13.90;99.90;;;;;;5155706;27;20076;-83
2022/07/16 04:24:30;;;;;;;5.78;1.48;;;13.90;99.90;;;;;;5138477;27;20050;-83
2022/07/16 04:26:56;;;;;;;3.97;1.50;;;14.00;99.90;;;;;;5155409;27;20119;-83
2022/07/16 04:29:21;;;;;;;7.47;1.77;;;14.00;99.90;;;;;;5157318;27;20049;-84
2022/07/16 04:31:47;;;;;;;5.25;1.20;;;14.00;99.90;;;;;;5156472;27;20035;-84
2022/07/16 04:34:13;;;;;;;6.18;1.65;;;14.00;99.90;;;;;;5158343;27;20038;-84
2022/07/16 04:36:39;;;;;;;7.90;1.73;;;14.00;99.90;;;;;;5156134;27;20031;-85
2022/07/16 04:39:04;;;;;;;5.72;1.35;;;14.00;99.90;;;;;;5138824;27;20497;-83
2022/07/16 04:41:30;;;;;;;7.28;1.23;;;14.00;99.90;;;;;;5155245;27;20587;-83
2022/07/16 04:43:56;;;;;;;9.35;1.48;;;14.00;99.90;;;;;;5156970;27;20078;-84
2022/07/16 04:46:22;;;;;;;7.35;1.42;;;14.00;99.90;;;;;;5155511;27;20035;-83
2022/07/16 04:48:48;;;;;;;4.90;1.50;;;14.10;99.90;;;;;;5137445;27;20050;-84
2022/07/16 04:51:13;;;;;;;6.40;1.63;;;14.20;99.90;;;;;;5156120;27;20046;-83
2022/07/16 04:53:39;;;;;;;11.63;1.80;;;14.20;99.90;;;;;;5156816;27;20048;-83
2022/07/16 04:56:05;;;;;;;11.68;2.10;;;14.30;99.90;;;;;;5136172;27;20043;-84
2022/07/16 04:58:31;;;;;;;8.48;1.52;;;14.40;99.90;;;;;;5156650;27;20125;-83
2022/07/16 05:00:57;;;;;;;8.65;1.60;;;14.40;99.90;;;;;;5155558;27;20038;-83
2022/07/16 05:03:23;;;;;;;13.48;2.00;;;14.50;99.90;;;;;;5137001;27;20039;-83
2022/07/16 05:05:49;;;;;;;7.85;1.80;;;14.50;99.90;;;;;;5134892;27;20538;-84
2022/07/16 05:08:15;;;;;;;12.60;1.80;;;14.60;99.90;;;;;;5124759;27;20058;-83
2022/07/16 05:10:41;;;;;;;10.63;2.20;;;14.70;99.90;;;;;;5154296;27;20515;-83
2022/07/16 05:13:10;;;;;;;14.88;2.55;;;14.70;99.90;;;;;;5156383;27;20446;-83
2022/07/16 05:15:36;;;;;;;8.70;2.00;;;14.80;99.90;;;;;;5115168;27;20079;-82
2022/07/16 05:18:02;;;;;;;8.05;1.65;;;14.90;99.90;;;;;;5132871;27;20088;-83
2022/07/16 05:20:28;;;;;;;7.20;1.42;;;14.90;99.90;;;;;;5129609;27;20047;-83
2022/07/16 05:22:54;;;;;;;9.13;1.60;;;15.00;99.90;;;;;;5134079;27;20100;-83
2022/07/16 05:25:20;;;;;;;5.00;1.35;;;15.10;99.90;;;;;;5133881;27;20114;-83
2022/07/16 05:27:46;;;;;;;9.07;1.20;;;15.20;99.90;;;;;;5134381;27;20088;-84
2022/07/16 05:30:13;;;;;;;9.10;2.35;;;15.20;99.90;;;;;;5133646;27;20046;-83
2022/07/16 05:32:42;;;;;;;5.97;1.08;;;15.30;99.90;;;;;;5112968;27;20039;-82
2022/07/16 05:35:10;;;;;;;11.80;2.28;;;15.30;99.90;;;;;;5113709;27;20044;-83
2022/07/16 05:37:35;;;;;;;9.32;1.48;;;15.30;99.90;;;;;;5135119;27;20050;-83
2022/07/16 05:40:02;;;;;;;7.63;1.60;;;15.40;99.90;;;;;;5133387;27;20513;-83
2022/07/16 05:42:28;;;;;;;6.60;1.30;;;15.50;99.90;;;;;;5134844;27;20047;-83
2022/07/16 05:44:53;;;;;;;8.57;1.42;;;15.60;99.90;;;;;;5133132;27;20042;-83
2022/07/16 05:47:19;;;;;;;8.65;1.88;;;15.60;99.90;;;;;;5133719;27;20082;-84
2022/07/16 05:49:45;;;;;;;8.93;1.35;;;15.60;99.90;;;;;;5133661;27;20247;-84
2022/07/16 05:52:11;;;;;;;9.23;1.30;;;15.70;99.90;;;;;;5116416;27;20047;-84
2022/07/16 05:54:37;;;;;;;5.03;1.10;;;15.80;99.90;;;;;;5117030;27;20045;-84
2022/07/16 05:57:03;;;;;;;5.10;1.20;;;15.90;99.90;;;;;;5115407;27;20032;-84
2022/07/16 05:59:28;;;;;;;5.07;1.20;;;15.90;99.90;;;;;;5130137;27;20046;-84
2022/07/16 06:01:54;;;;;;;5.43;1.23;;;15.90;99.90;;;;;;5134865;27;20118;-84
2022/07/16 06:04:20;;;;;;;6.20;1.00;;;15.80;99.90;;;;;;5120234;27;20423;-82
2022/07/16 06:06:45;;;;;;;7.40;1.50;;;15.70;99.90;;;;;;5114619;27;20052;-83
2022/07/16 06:09:12;;;;;;;7.45;1.27;;;15.60;99.90;;;;;;5134885;27;20394;-84
2022/07/16 06:11:38;;;;;;;4.97;1.38;;;15.50;99.90;;;;;;5131518;27;20035;-84
2022/07/16 06:14:04;;;;;;;9.60;1.20;;;15.40;99.90;;;;;;5111999;28;20090;-82
2022/07/16 06:16:30;;;;;;;4.03;1.08;;;15.30;99.90;;;;;;5114316;28;20402;-82
2022/07/16 06:18:56;;;;;;;6.65;1.10;;;15.30;99.90;;;;;;5125621;28;20042;-81
2022/07/16 06:21:21;;;;;;;9.63;1.60;;;15.30;99.90;;;;;;5137642;27;20046;-81
2022/07/16 06:23:47;;;;;;;5.90;1.05;;;15.30;99.90;;;;;;5121706;27;20039;-81
2022/07/16 06:26:13;;;;;;;4.50;1.10;;;15.30;99.90;;;;;;5131903;27;20047;-81
2022/07/16 06:28:39;;;;;;;6.07;1.20;;;15.50;99.90;;;;;;5139553;27;20414;-83
2022/07/16 06:31:05;;;;;;;5.60;1.10;;;15.50;99.90;;;;;;5126789;27;20062;-81
2022/07/16 06:33:31;;;;;;;3.05;0.98;;;15.60;99.90;;;;;;5102874;27;20044;-83
2022/07/16 06:35:56;;;;;;;6.25;1.88;;;15.70;99.90;;;;;;5139183;27;20081;-81
2022/07/16 06:38:29;;;;;;;5.07;1.13;;;15.70;99.90;;;;;;5140037;27;20043;-82
2022/07/16 06:40:55;;;;;;;5.80;1.10;;;15.90;99.90;;;;;;5139956;27;20089;-81
2022/07/16 06:43:26;;;;;;;3.60;0.95;;;16.00;99.90;;;;;;5140662;27;20127;-84
2022/07/16 06:45:52;;;;;;;6.80;1.08;;;16.00;99.90;;;;;;5124897;27;20510;-82
2022/07/16 06:48:18;;;;;;;5.63;1.38;;;16.10;99.90;;;;;;5117743;27;20044;-84
2022/07/16 06:50:44;;;;;;;9.35;1.33;;;16.20;99.90;;;;;;5118140;27;20482;-83
2022/07/16 06:53:10;;;;;;;6.43;1.23;;;16.30;99.90;;;;;;5140488;27;20047;-82
2022/07/16 06:55:36;;;;;;;5.78;1.05;;;16.40;99.90;;;;;;5124220;27;20135;-82
2022/07/16 06:58:01;;;;;;;6.63;0.93;;;16.30;99.90;;;;;;5119078;28;20070;-81
2022/07/16 07:00:27;;;;;;;8.40;0.90;;;16.20;99.90;;;;;;5127932;27;20070;-81
2022/07/16 07:02:53;;;;;;;6.93;1.13;;;16.10;99.90;;;;;;5120558;27;20035;-82
2022/07/16 07:05:19;;;;;;;5.40;0.73;;;16.00;99.90;;;;;;5120245;27;20043;-82
2022/07/16 07:07:44;;;;;;;3.97;1.08;;;16.10;99.90;;;;;;5121755;27;20032;-84
2022/07/16 07:10:10;;;;;;;5.38;1.17;;;16.20;99.90;;;;;;5119906;28;20406;-82
2022/07/16 07:12:36;;;;;;;5.68;0.70;;;16.30;99.90;;;;;;5135226;27;20504;-81
2022/07/16 07:15:03;;;;;;;4.30;0.70;;;16.50;99.90;;;;;;5156352;27;20061;-83
2022/07/16 07:17:29;;;;;;;4.45;0.80;;;16.60;99.90;;;;;;5139903;27;20470;-84
2022/07/16 07:19:55;;;;;;;5.20;0.82;;;16.60;99.90;;;;;;5125310;27;20133;-84
2022/07/16 07:22:21;;;;;;;6.85;1.00;;;16.60;99.90;;;;;;5126147;27;20106;-83
2022/07/16 07:24:46;;;;;;;2.80;0.68;;;16.60;99.90;;;;;;5141721;27;20390;-79
2022/07/16 07:27:12;;;;;;;6.03;0.90;;;16.50;99.90;;;;;;5141838;27;20039;-85
2022/07/16 07:29:38;;;;;;;3.30;0.70;;;16.50;99.90;;;;;;5141240;27;20054;-81
2022/07/16 07:32:04;;;;;;;2.90;0.90;;;16.40;99.90;;;;;;5119786;27;20041;-83
2022/07/16 07:34:30;;;;;;;8.13;1.40;;;16.40;99.90;;;;;;5133350;27;20039;-80
2022/07/16 07:36:56;;;;;;;4.97;1.35;;;16.50;99.90;;;;;;5138037;27;20039;-82
2022/07/16 07:39:21;;;;;;;3.78;0.93;;;16.50;99.90;;;;;;5119999;27;20397;-82
2022/07/16 07:41:47;;;;;;;12.15;1.70;;;16.60;99.90;;;;;;5137984;27;20482;-83
2022/07/16 07:44:14;;;;;;;3.30;0.43;;;16.70;99.90;;;;;;5146415;27;20050;-80
2022/07/16 07:46:40;;;;;;;2.50;0.60;;;16.70;99.90;;;;;;5137789;27;20030;-82
2022/07/16 07:49:07;;;;;;;3.20;0.80;;;16.60;99.90;;;;;;5138421;27;20051;-83
2022/07/16 07:51:32;;;;;;;4.78;0.57;;;16.60;99.90;;;;;;5134071;27;20123;-84
2022/07/16 07:53:58;;;;;;;2.55;0.70;;;16.60;99.90;;;;;;5159034;27;20472;-87
2022/07/16 07:56:24;;;;;;;1.80;0.55;;;16.70;99.90;;;;;;5136913;27;20122;-82
2022/07/16 07:58:50;;;;;;;2.17;0.52;;;16.90;99.90;;;;;;5142734;27;20130;-83
2022/07/16 08:01:16;;;;;;;5.38;1.00;;;17.00;99.90;;;;;;5155751;27;20129;-85
2022/07/16 08:03:41;;;;;;;5.47;0.88;;;17.10;99.90;;;;;;5119021;27;20051;-85
2022/07/16 08:06:07;;;;;;;4.47;0.90;;;17.20;99.90;;;;;;5156121;27;20115;-83
2022/07/16 08:08:33;;;;;;;2.03;0.50;;;17.20;99.90;;;;;;5157628;27;20115;-85
2022/07/16 08:10:59;;;;;;;5.47;0.60;;;17.30;99.90;;;;;;5157774;27;20063;-83
2022/07/16 08:13:24;;;;;;;2.90;0.77;;;17.40;99.90;;;;;;5156672;27;20057;-83
2022/07/16 08:15:50;;;;;;;4.20;0.95;;;17.50;99.90;;;;;;5157642;27;20100;-82
2022/07/16 08:18:16;;;;;;;5.13;0.77;;;17.50;99.90;;;;;;5157581;27;20057;-83
2022/07/16 08:20:42;;;;;;;6.90;1.60;;;17.40;99.90;;;;;;5156502;27;20039;-84
2022/07/16 08:23:07;;;;;;;7.05;1.10;;;17.30;99.90;;;;;;5157169;27;20043;-81
2022/07/16 08:25:45;;;;;;;4.07;0.90;;;17.20;99.90;;;;;;5157211;27;20080;-84
2022/07/16 08:28:12;;;;;;;3.78;0.65;;;17.10;99.90;;;;;;5156640;27;20068;-84
2022/07/16 08:30:38;;;;;;;4.10;1.00;;;17.10;99.90;;;;;;5138883;27;20083;-83
2022/07/16 08:33:03;;;;;;;5.00;0.93;;;17.10;99.90;;;;;;5157301;27;20082;-83
2022/07/16 08:35:29;;;;;;;4.30;1.20;;;17.20;99.90;;;;;;5137702;27;20046;-80
2022/07/16 08:37:55;;;;;;;4.07;1.20;;;17.10;99.90;;;;;;5157191;27;20080;-83
2022/07/16 08:40:23;;;;;;;4.30;0.93;;;17.00;99.90;;;;;;5157194;27;20042;-84
2022/07/16 08:42:50;;;;;;;5.97;1.00;;;17.00;99.90;;;;;;5137489;27;20038;-82
2022/07/16 08:45:18;;;;;;;6.07;0.85;;;16.90;99.90;;;;;;5137484;27;20065;-83
2022/07/16 08:47:44;;;;;;;5.95;1.17;;;16.90;99.90;;;;;;5137770;27;20099;-83
2022/07/16 08:50:13;;;;;;;7.10;1.25;;;16.80;99.90;;;;;;5156732;27;20046;-83
2022/07/16 08:52:50;;;;;;;3.83;1.20;;;16.90;99.90;;;;;;5157136;27;20054;-83
2022/07/16 08:55:17;;;;;;;6.05;0.90;;;16.90;99.90;;;;;;5156125;27;20097;-84
2022/07/16 08:57:47;;;;;;;6.03;1.00;;;17.00;99.90;;;;;;5156811;27;20095;-85
2022/07/16 09:00:13;;;;;;;6.47;0.80;;;17.20;99.90;;;;;;5138436;27;20051;-83
2022/07/16 09:02:40;;;;;;;10.82;1.75;;;17.20;99.90;;;;;;5137591;27;20035;-82
2022/07/16 09:05:07;;;;;;;12.80;1.67;;;17.40;99.90;;;;;;5137827;27;20089;-83
2022/07/16 09:07:33;;;;;;;9.55;1.08;;;17.40;99.90;;;;;;5156415;27;20050;-82
2022/07/16 09:09:58;;;;;;;5.03;1.10;;;17.50;99.90;;;;;;5155446;27;20043;-84
2022/07/16 09:12:41;;;;;;;5.20;1.10;;;17.40;99.90;;;;;;5156467;27;20125;-84
2022/07/16 09:15:26;;;;;;;9.40;1.10;;;17.50;99.90;;;;;;5120270;27;20106;-83
2022/07/16 09:18:06;;;;;;;3.78;1.20;;;17.50;99.90;;;;;;5137167;27;20461;-82
2022/07/16 09:20:32;;;;;;;2.88;0.88;;;17.60;99.90;;;;;;5156018;27;20050;-81
2022/07/16 09:22:58;;;;;;;5.45;1.10;;;17.60;99.90;;;;;;5136796;27;20046;-83
2022/07/16 09:25:24;;;;;;;4.30;1.05;;;17.70;99.90;;;;;;5137527;27;20046;-81
2022/07/16 09:28:00;;;;;;;2.72;0.80;;;17.80;99.90;;;;;;5155862;27;20377;-82
2022/07/16 09:30:27;;;;;;;4.15;0.73;;;17.80;99.90;;;;;;5137353;27;20121;-83
2022/07/16 09:32:53;;;;;;;7.40;1.30;;;17.80;99.90;;;;;;5155971;27;20500;-81
2022/07/16 09:35:20;;;;;;;7.72;0.95;;;17.80;99.90;;;;;;5156145;27;20112;-84
2022/07/16 09:37:54;;;;;;;5.72;1.20;;;17.90;99.90;;;;;;5136623;27;20054;-85
2022/07/16 09:40:45;;;;;;;4.75;0.80;;;17.90;99.90;;;;;;5155920;27;20047;-83
2022/07/16 09:43:13;;;;;;;5.75;0.90;;;17.90;99.90;;;;;;5120574;27;20047;-85
2022/07/16 09:45:56;;;;;;;5.10;1.13;;;17.80;99.90;;;;;;5136568;27;20075;-84
2022/07/16 09:48:26;;;;;;;4.90;1.08;;;17.90;99.90;;;;;;5137259;27;20047;-83
2022/07/16 09:50:54;;;;;;;3.63;0.70;;;18.00;99.90;;;;;;5137092;27;20075;-87
2022/07/16 09:53:23;;;;;;;6.75;1.35;;;18.10;99.90;;;;;;5119945;27;20047;-83
2022/07/16 09:56:04;;;;;;;3.03;0.90;;;18.10;99.90;;;;;;5136725;27;20046;-82
2022/07/16 09:58:31;;;;;;;7.85;1.17;;;18.20;99.90;;;;;;5136231;27;20076;-83
2022/07/16 10:00:58;;;;;;;2.88;0.80;;;18.10;99.90;;;;;;5137036;27;20111;-84
2022/07/16 10:03:25;;;;;;;7.13;1.20;;;18.00;99.90;;;;;;5137030;27;20103;-84
2022/07/16 10:05:51;;;;;;;9.20;1.40;;;17.90;99.90;;;;;;5154507;27;20500;-84
2022/07/16 10:08:18;;;;;;;7.95;1.25;;;17.90;99.90;;;;;;5155431;27;20042;-85
2022/07/16 10:10:44;;;;;;;9.45;1.30;;;18.00;99.90;;;;;;5155580;27;20054;-84
2022/07/16 10:13:12;;;;;;;6.72;1.40;;;18.10;99.90;;;;;;5136099;27;20407;-85
2022/07/16 10:15:38;;;;;;;7.57;1.23;;;18.00;99.90;;;;;;5137037;27;20047;-84
2022/07/16 10:18:24;;;;;;;5.07;1.42;;;18.00;99.90;;;;;;5136998;27;20107;-83
2022/07/16 10:21:11;;;;;;;4.72;1.00;;;18.00;99.90;;;;;;5154407;27;20082;-82
2022/07/16 10:23:39;;;;;;;6.50;1.00;;;18.10;99.90;;;;;;5136815;27;20047;-81
2022/07/16 10:26:13;;;;;;;7.35;1.67;;;18.20;99.90;;;;;;5154654;27;20042;-83
2022/07/16 10:28:51;;;;;;;3.40;0.98;;;18.20;99.90;;;;;;5155422;27;20094;-82
2022/07/16 10:31:31;;;;;;;5.75;0.90;;;18.30;99.90;;;;;;5155549;27;20397;-84
2022/07/16 10:34:20;;;;;;;8.90;2.03;;;18.30;99.90;;;;;;5135794;27;20047;-81
2022/07/16 10:36:54;;;;;;;7.55;1.20;;;18.20;99.90;;;;;;5123583;27;20111;-85
2022/07/16 10:39:25;;;;;;;6.13;0.80;;;18.00;99.90;;;;;;5155243;27;20046;-84
2022/07/16 10:41:52;;;;;;;6.93;1.52;;;17.90;99.90;;;;;;5155221;27;20042;-83
2022/07/16 10:44:19;;;;;;;6.60;1.30;;;17.90;99.90;;;;;;5155228;27;20047;-83
2022/07/16 10:46:56;;;;;;;7.82;1.15;;;18.00;99.90;;;;;;5155100;27;20061;-84
2022/07/16 10:49:23;;;;;;;8.25;1.75;;;18.20;99.90;;;;;;5154409;27;20043;-82
2022/07/16 10:52:09;;;;;;;8.27;1.05;;;18.30;99.90;;;;;;5136459;27;20050;-87
2022/07/16 10:54:37;;;;;;;4.13;1.00;;;18.50;99.90;;;;;;5135409;27;20102;-82
2022/07/16 10:57:10;;;;;;;4.55;1.05;;;18.60;99.90;;;;;;5136418;27;20046;-83
2022/07/16 10:59:39;;;;;;;4.97;0.90;;;18.60;99.90;;;;;;5154788;27;20082;-83
2022/07/16 11:02:08;;;;;;;5.57;0.85;;;18.60;99.90;;;;;;5154519;27;20035;-83
2022/07/16 11:04:39;;;;;;;5.85;1.15;;;18.50;99.90;;;;;;5136347;27;20055;-85
2022/07/16 11:07:09;;;;;;;5.20;1.02;;;18.50;99.90;;;;;;5137305;27;20084;-84
2022/07/16 11:09:38;;;;;;;3.97;0.98;;;18.50;99.90;;;;;;5139293;27;20051;-83
2022/07/16 11:12:22;;;;;;;6.88;0.90;;;18.60;99.90;;;;;;5158687;27;20050;-85
2022/07/16 11:14:53;;;;;;;3.40;1.05;;;18.50;99.90;;;;;;5158483;27;20051;-83
2022/07/16 11:17:23;;;;;;;6.18;1.10;;;18.40;99.90;;;;;;5122295;27;20084;-83
2022/07/16 11:19:55;;;;;;;10.27;1.52;;;18.40;99.90;;;;;;5140223;27;20050;-84
2022/07/16 11:22:26;;;;;;;6.15;0.90;;;18.50;99.90;;;;;;5139257;27;20120;-83
2022/07/16 11:24:58;;;;;;;6.43;1.13;;;18.60;99.90;;;;;;5139863;27;20576;-83
2022/07/16 11:27:36;;;;;;;3.35;0.68;;;18.70;99.90;;;;;;5158464;27;20042;-82
2022/07/16 11:30:04;;;;;;;3.75;1.20;;;18.80;99.90;;;;;;5139425;27;20385;-84
2022/07/16 11:32:31;;;;;;;4.07;0.82;;;18.80;99.90;;;;;;5158441;27;20046;-85
2022/07/16 11:35:04;;;;;;;7.72;1.27;;;18.70;99.90;;;;;;5158185;27;20503;-84
2022/07/16 11:37:46;;;;;;;5.55;0.80;;;18.80;99.90;;;;;;5138795;27;20050;-84
2022/07/16 11:40:12;;;;;;;3.88;1.15;;;18.80;99.90;;;;;;5139963;27;20085;-84
2022/07/16 11:42:37;;;;;;;7.15;1.02;;;18.90;99.90;;;;;;5158038;27;20458;-83
2022/07/16 11:45:06;;;;;;;7.90;1.20;;;19.00;99.90;;;;;;5157059;27;20103;-84
2022/07/16 11:47:32;;;;;;;5.82;1.15;;;19.00;99.40;;;;;;5158102;27;20425;-85
2022/07/16 11:49:58;;;;;;;3.47;1.17;;;18.80;99.40;;;;;;5139681;27;20131;-85
2022/07/16 11:52:24;;;;;;;3.65;1.00;;;18.70;99.50;;;;;;5157068;27;20078;-83
2022/07/16 11:54:52;;;;;;;2.53;0.50;;;18.60;98.60;;;;;;5139430;27;20477;-83
2022/07/16 11:57:18;;;;;;;9.55;1.23;;;18.50;96.80;;;;;;5139430;27;20430;-83
2022/07/16 11:59:51;;;;;;;6.90;1.17;;;18.40;97.20;;;;;;5156707;27;20512;-83
2022/07/16 12:02:18;;;;;;;4.50;0.80;;;18.50;98.70;;;;;;5157966;27;20119;-81
2022/07/16 12:04:50;;;;;;;3.13;1.00;;;18.40;99.10;;;;;;5138319;27;20397;-82
2022/07/16 12:07:24;;;;;;;8.25;1.20;;;18.40;99.00;;;;;;5157932;27;20053;-84
2022/07/16 12:09:54;;;;;;;5.25;1.08;;;18.30;99.90;;;;;;5157387;27;20042;-83
2022/07/16 12:12:26;;;;;;;6.22;0.90;;;18.40;99.60;;;;;;5121216;27;20053;-86
2022/07/16 12:14:52;;;;;;;6.25;1.02;;;18.40;99.30;;;;;;5135310;27;20054;-83
2022/07/16 12:17:31;;;;;;;7.97;1.15;;;18.50;99.50;;;;;;5136551;27;20103;-84
2022/07/16 12:20:24;;;;;;;7.35;1.10;;;18.70;99.70;;;;;;5134514;27;20039;-84
2022/07/16 12:23:15;;;;;;;5.13;1.13;;;18.80;99.10;;;;;;5135412;27;20047;-83
2022/07/16 12:25:44;;;;;;;4.22;1.00;;;18.70;99.90;;;;;;5135232;27;20101;-82
2022/07/16 12:28:17;;;;;;;5.85;1.10;;;18.60;99.90;;;;;;5135291;27;20076;-83
2022/07/16 12:30:45;;;;;;;7.47;1.67;;;18.50;99.90;;;;;;5135438;27;20035;-84
2022/07/16 12:33:21;;;;;;;4.95;1.25;;;18.40;99.90;;;;;;5135793;27;20047;-85
2022/07/16 12:36:00;;;;;;;4.68;1.17;;;18.50;99.90;;;;;;5135237;27;20100;-84
2022/07/16 12:39:02;;;;;;;9.65;2.42;;;18.50;99.90;;;;;;5135342;27;20055;-84
2022/07/16 12:41:32;;;;;;;6.88;1.38;;;18.40;99.90;;;;;;5134624;27;20058;-84
2022/07/16 12:44:06;;;;;;;6.65;1.35;;;18.30;99.90;;;;;;5135368;27;20135;-83
2022/07/16 12:46:37;;;;;;;10.32;1.98;;;18.10;99.90;;;;;;5135228;27;20043;-84
2022/07/16 12:49:06;;;;;;;6.88;1.20;;;18.00;99.90;;;;;;5134355;27;20125;-84
2022/07/16 12:51:37;;;;;;;7.60;1.10;;;18.00;99.90;;;;;;5134809;27;20047;-82
2022/07/16 12:54:04;;;;;;;6.88;1.13;;;18.20;99.90;;;;;;5134383;27;20432;-81